Main page
METAR-TAF:

METAR-TAF

Airports :

Inverness Airport

Inverness, Scotland

latitude: 57-32N, longitude: 004-03W, elevation: 9 m

Current weather observation

The report was made 44 minutes ago, at 00:50 UTC
Wind 15 kt from the Southwest
Temperature 3°C
Humidity 87%
Pressure 998 hPa
Visibility 10 km or more

METAR: EGPE 180050Z AUTO 23015KT 9999 SCT033/// SCT041/// 03/01 Q0998

Time: 01:34 (01:34 UTC)

Forecast

The report was made 2 hours and 39 minutes ago, at 22:55 UTC
Forecast valid from 18 at 00 UTC to 18 at 09 UTC
Wind 17 kt from the Southwest
Visibility 10 km or more
Few clouds at a height of 1700 ft
Scattered clouds at a height of 3000 ft
Probability 40% :
Temporary
from 18 at 00 UTC to 18 at 09 UTC
Wind 20 kt from the West/Southwest with gusts up to 30 kt
Visibility: 6000 m
Broken clouds at a height of 1400 ft
rain showers

TAF: EGPE 172255Z 1800/1809 23017KT 9999 FEW017 SCT030 PROB40 TEMPO 1800/1809 24020G30KT 6000 SHRA BKN014

Weather observations and forecasts of more than 4000 airports (METAR and TAF reports).

The available stations are represented by yellow and red dots on the map.

Hover mouse over dot to see the name of the station.

Then click to see weather observations and forecasts.

To change the map : click on the green buttons with a black cross to zoom in, on the green button with a dash to zoom out, or on the green arrows for adjacent maps.


METAR-TAF: